SHT1480 EGKK-EGPF
Flight info
| Callsign | SHT1480 |
|---|---|
| Flight time | 0h 56m |
| Altitude | 34000 |
| Route | LAM L10 BPK UN601 RIBEL DCT ASLIB |
| Aircraft | A21N/M-SDE3FGHIRWY/LB1 |
Departure
| Time | 2026-05-07 14:33 |
|---|---|
| Airport | London Gatwick Airport (EGKK) |
Arrival
| Time | 2026-05-07 15:30 |
|---|---|
| Airport | Glasgow Airport (EGPF) |
| Time | Latitude | Longitude | Altitude | Speed | Heading |
|---|---|---|---|---|---|
| 2026-05-07 13:36 | 51.15498 | -0.16843 | 201 ft | 0 kts | 347° |
| 2026-05-07 14:20 | 51.15494 | -0.16842 | 201 ft | 2 kts | 347° |
| 2026-05-07 14:20 | 51.15484 | -0.16838 | 201 ft | 2 kts | 346° |
| 2026-05-07 14:21 | 51.15470 | -0.16828 | 201 ft | 2 kts | 321° |
| 2026-05-07 14:21 | 51.15460 | -0.16811 | 201 ft | 2 kts | 303° |
| 2026-05-07 14:21 | 51.15454 | -0.16789 | 201 ft | 2 kts | 283° |
| 2026-05-07 14:21 | 51.15452 | -0.16777 | 201 ft | 1 kts | 273° |
| 2026-05-07 14:22 | 51.15452 | -0.16772 | 201 ft | 0 kts | 275° |
| 2026-05-07 14:25 | 51.15452 | -0.16773 | 201 ft | 0 kts | 276° |
| 2026-05-07 14:25 | 51.15453 | -0.16788 | 201 ft | 2 kts | 273° |
| 2026-05-07 14:25 | 51.15450 | -0.16833 | 201 ft | 5 kts | 259° |
| 2026-05-07 14:25 | 51.15440 | -0.16912 | 201 ft | 8 kts | 258° |
| 2026-05-07 14:26 | 51.15426 | -0.17015 | 201 ft | 10 kts | 258° |
| 2026-05-07 14:26 | 51.15411 | -0.17127 | 200 ft | 9 kts | 256° |
| 2026-05-07 14:26 | 51.15382 | -0.17224 | 200 ft | 9 kts | 232° |
| 2026-05-07 14:26 | 51.15321 | -0.17236 | 200 ft | 9 kts | 167° |
| 2026-05-07 14:27 | 51.15257 | -0.17230 | 201 ft | 9 kts | 212° |
| 2026-05-07 14:27 | 51.15231 | -0.17330 | 201 ft | 11 kts | 258° |
| 2026-05-07 14:27 | 51.15209 | -0.17490 | 201 ft | 17 kts | 258° |
| 2026-05-07 14:27 | 51.15179 | -0.17709 | 200 ft | 23 kts | 257° |
| 2026-05-07 14:28 | 51.15140 | -0.17983 | 200 ft | 27 kts | 258° |
| 2026-05-07 14:28 | 51.15097 | -0.18304 | 200 ft | 31 kts | 257° |
| 2026-05-07 14:28 | 51.15047 | -0.18666 | 200 ft | 35 kts | 257° |
| 2026-05-07 14:28 | 51.14990 | -0.19077 | 200 ft | 40 kts | 258° |
| 2026-05-07 14:29 | 51.14927 | -0.19534 | 201 ft | 43 kts | 258° |
| 2026-05-07 14:29 | 51.14859 | -0.20025 | 201 ft | 46 kts | 257° |
| 2026-05-07 14:29 | 51.14788 | -0.20543 | 202 ft | 46 kts | 257° |
| 2026-05-07 14:29 | 51.14732 | -0.20949 | 203 ft | 25 kts | 258° |
| 2026-05-07 14:30 | 51.14698 | -0.21197 | 204 ft | 20 kts | 258° |
| 2026-05-07 14:30 | 51.14671 | -0.21327 | 204 ft | 9 kts | 213° |
| 2026-05-07 14:30 | 51.14614 | -0.21326 | 204 ft | 6 kts | 170° |
| 2026-05-07 14:30 | 51.14565 | -0.21301 | 204 ft | 9 kts | 151° |
| 2026-05-07 14:31 | 51.14520 | -0.21232 | 204 ft | 8 kts | 123° |
| 2026-05-07 14:31 | 51.14519 | -0.21173 | 204 ft | 0 kts | 78° |
| 2026-05-07 14:32 | 51.14519 | -0.21170 | 204 ft | 1 kts | 78° |
| 2026-05-07 14:32 | 51.14556 | -0.20898 | 203 ft | 61 kts | 78° |
| 2026-05-07 14:33 | 51.14699 | -0.19864 | 202 ft | 127 kts | 78° |
| 2026-05-07 14:33 | 51.14934 | -0.18181 | 268 ft | 173 kts | 79° |
| 2026-05-07 14:33 | 51.15198 | -0.16314 | 855 ft | 176 kts | 79° |
| 2026-05-07 14:33 | 51.15463 | -0.14423 | 1567 ft | 178 kts | 79° |
| 2026-05-07 14:34 | 51.15731 | -0.12494 | 2173 ft | 185 kts | 79° |
| 2026-05-07 14:34 | 51.16019 | -0.10372 | 2565 ft | 203 kts | 79° |
| 2026-05-07 14:34 | 51.16345 | -0.08129 | 3048 ft | 217 kts | 74° |
| 2026-05-07 14:34 | 51.17002 | -0.05854 | 3445 ft | 238 kts | 58° |
| 2026-05-07 14:35 | 51.18012 | -0.03638 | 3901 ft | 258 kts | 53° |
| 2026-05-07 14:35 | 51.19136 | -0.01356 | 4626 ft | 266 kts | 52° |
| 2026-05-07 14:35 | 51.20298 | 0.00992 | 5484 ft | 270 kts | 53° |
| 2026-05-07 14:35 | 51.21541 | 0.03191 | 6273 ft | 274 kts | 37° |
| 2026-05-07 14:36 | 51.23303 | 0.04341 | 7010 ft | 279 kts | 11° |
| 2026-05-07 14:36 | 51.25233 | 0.04746 | 7774 ft | 282 kts | 6° |
| 2026-05-07 14:36 | 51.27176 | 0.05070 | 8489 ft | 286 kts | 7° |
| 2026-05-07 14:36 | 51.29146 | 0.05457 | 9203 ft | 289 kts | 8° |
| 2026-05-07 14:37 | 51.31148 | 0.05916 | 9937 ft | 292 kts | 9° |
| 2026-05-07 14:37 | 51.35215 | 0.06966 | 11344 ft | 298 kts | 9° |
| 2026-05-07 14:37 | 51.37253 | 0.07521 | 12008 ft | 302 kts | 9° |
| 2026-05-07 14:38 | 51.39352 | 0.08100 | 12679 ft | 305 kts | 9° |
| 2026-05-07 14:38 | 51.41431 | 0.08679 | 13325 ft | 308 kts | 9° |
| 2026-05-07 14:38 | 51.43536 | 0.09266 | 13974 ft | 311 kts | 9° |
| 2026-05-07 14:38 | 51.45690 | 0.09869 | 14621 ft | 314 kts | 9° |
| 2026-05-07 14:39 | 51.47832 | 0.10470 | 15244 ft | 317 kts | 9° |
| 2026-05-07 14:39 | 51.49986 | 0.11076 | 15852 ft | 320 kts | 9° |
| 2026-05-07 14:39 | 51.52182 | 0.11693 | 16453 ft | 323 kts | 9° |
| 2026-05-07 14:39 | 51.54420 | 0.12324 | 17052 ft | 326 kts | 9° |
| 2026-05-07 14:40 | 51.56631 | 0.12947 | 17626 ft | 328 kts | 9° |
| 2026-05-07 14:40 | 51.58895 | 0.13586 | 18195 ft | 331 kts | 9° |
| 2026-05-07 14:40 | 51.61148 | 0.14206 | 18748 ft | 334 kts | 6° |
| 2026-05-07 14:40 | 51.63466 | 0.14033 | 19246 ft | 335 kts | 342° |
| 2026-05-07 14:41 | 51.65517 | 0.12348 | 19730 ft | 336 kts | 319° |
| 2026-05-07 14:41 | 51.67045 | 0.09493 | 20003 ft | 344 kts | 301° |
| 2026-05-07 14:41 | 51.68321 | 0.06180 | 20278 ft | 356 kts | 300° |
| 2026-05-07 14:41 | 51.69649 | 0.02741 | 20553 ft | 368 kts | 301° |
| 2026-05-07 14:42 | 51.71038 | -0.00791 | 20789 ft | 380 kts | 301° |
| 2026-05-07 14:42 | 51.72484 | -0.04424 | 21009 ft | 391 kts | 302° |
| 2026-05-07 14:42 | 51.74085 | -0.08079 | 21216 ft | 403 kts | 309° |
| 2026-05-07 14:42 | 51.76056 | -0.11286 | 21487 ft | 412 kts | 319° |
| 2026-05-07 14:43 | 51.78405 | -0.13994 | 21879 ft | 417 kts | 327° |
| 2026-05-07 14:43 | 51.80899 | -0.16406 | 22285 ft | 420 kts | 328° |
| 2026-05-07 14:43 | 51.83431 | -0.18784 | 22655 ft | 423 kts | 329° |
| 2026-05-07 14:43 | 51.85999 | -0.21197 | 23019 ft | 427 kts | 328° |
| 2026-05-07 14:44 | 51.88541 | -0.23601 | 23402 ft | 430 kts | 328° |
| 2026-05-07 14:44 | 51.91135 | -0.26067 | 23797 ft | 433 kts | 328° |
| 2026-05-07 14:44 | 51.93746 | -0.28561 | 24190 ft | 436 kts | 328° |
| 2026-05-07 14:44 | 51.96354 | -0.31058 | 24571 ft | 438 kts | 328° |
| 2026-05-07 14:45 | 51.98950 | -0.33551 | 24941 ft | 441 kts | 328° |
| 2026-05-07 14:45 | 52.01593 | -0.36093 | 25310 ft | 443 kts | 328° |
| 2026-05-07 14:45 | 52.04248 | -0.38651 | 25667 ft | 446 kts | 328° |
| 2026-05-07 14:45 | 52.06916 | -0.41224 | 26021 ft | 448 kts | 328° |
| 2026-05-07 14:46 | 52.09602 | -0.43815 | 26367 ft | 450 kts | 328° |
| 2026-05-07 14:46 | 52.12285 | -0.46409 | 26687 ft | 453 kts | 329° |
| 2026-05-07 14:46 | 52.14972 | -0.49011 | 26991 ft | 456 kts | 329° |
| 2026-05-07 14:46 | 52.17701 | -0.51659 | 27294 ft | 458 kts | 329° |
| 2026-05-07 14:47 | 52.20442 | -0.54322 | 27576 ft | 461 kts | 329° |
| 2026-05-07 14:47 | 52.23194 | -0.56997 | 27893 ft | 462 kts | 329° |
| 2026-05-07 14:47 | 52.25957 | -0.59686 | 28278 ft | 461 kts | 329° |
| 2026-05-07 14:47 | 52.28670 | -0.62330 | 28655 ft | 460 kts | 329° |
| 2026-05-07 14:48 | 52.31427 | -0.65024 | 29029 ft | 459 kts | 328° |
| 2026-05-07 14:48 | 52.34128 | -0.67667 | 29392 ft | 458 kts | 329° |
| 2026-05-07 14:48 | 52.36871 | -0.70353 | 29761 ft | 457 kts | 329° |
| 2026-05-07 14:48 | 52.39604 | -0.73033 | 30139 ft | 457 kts | 329° |
| 2026-05-07 14:49 | 52.42299 | -0.75679 | 30528 ft | 456 kts | 329° |
| 2026-05-07 14:49 | 52.45011 | -0.78348 | 30917 ft | 455 kts | 329° |
| 2026-05-07 14:49 | 52.47704 | -0.81001 | 31300 ft | 454 kts | 329° |
| 2026-05-07 14:49 | 52.50402 | -0.83664 | 31676 ft | 453 kts | 329° |
| 2026-05-07 14:50 | 52.53075 | -0.86306 | 32019 ft | 452 kts | 329° |
| 2026-05-07 14:50 | 52.55764 | -0.88967 | 32350 ft | 451 kts | 329° |
| 2026-05-07 14:50 | 52.58451 | -0.91631 | 32643 ft | 451 kts | 329° |
| 2026-05-07 14:50 | 52.61134 | -0.94293 | 32908 ft | 452 kts | 329° |
| 2026-05-07 14:51 | 52.63799 | -0.96940 | 33147 ft | 453 kts | 329° |
| 2026-05-07 14:51 | 52.66500 | -0.99628 | 33381 ft | 453 kts | 329° |
| 2026-05-07 14:51 | 52.69192 | -1.02313 | 33610 ft | 454 kts | 329° |
| 2026-05-07 14:51 | 52.71904 | -1.05021 | 33835 ft | 454 kts | 329° |
| 2026-05-07 14:52 | 52.74603 | -1.07719 | 34027 ft | 455 kts | 329° |
| 2026-05-07 14:52 | 52.77307 | -1.10424 | 34077 ft | 456 kts | 329° |
| 2026-05-07 14:52 | 52.82699 | -1.15831 | 34115 ft | 455 kts | 329° |
| 2026-05-07 14:53 | 52.88075 | -1.21239 | 34065 ft | 455 kts | 329° |
| 2026-05-07 14:53 | 52.93452 | -1.26669 | 34049 ft | 455 kts | 329° |
| 2026-05-07 14:54 | 52.98831 | -1.32112 | 34032 ft | 455 kts | 329° |
| 2026-05-07 14:54 | 53.04216 | -1.37573 | 34027 ft | 455 kts | 329° |
| 2026-05-07 14:55 | 53.09612 | -1.43069 | 34034 ft | 455 kts | 329° |
| 2026-05-07 14:55 | 53.15015 | -1.48590 | 34036 ft | 455 kts | 329° |
| 2026-05-07 14:56 | 53.20390 | -1.54097 | 34033 ft | 455 kts | 329° |
| 2026-05-07 14:56 | 53.25782 | -1.59641 | 34027 ft | 455 kts | 329° |
| 2026-05-07 14:57 | 53.31164 | -1.65191 | 34021 ft | 455 kts | 328° |
| 2026-05-07 14:57 | 53.36518 | -1.70722 | 34014 ft | 453 kts | 328° |
| 2026-05-07 14:58 | 53.41837 | -1.76237 | 34016 ft | 449 kts | 328° |
| 2026-05-07 14:58 | 53.47138 | -1.81751 | 34018 ft | 445 kts | 328° |
| 2026-05-07 14:59 | 53.52336 | -1.87164 | 34023 ft | 442 kts | 328° |
| 2026-05-07 14:59 | 53.57568 | -1.92629 | 34028 ft | 444 kts | 328° |
| 2026-05-07 15:00 | 53.62824 | -1.98140 | 34028 ft | 453 kts | 328° |
| 2026-05-07 15:00 | 53.68162 | -2.03763 | 34029 ft | 455 kts | 328° |
| 2026-05-07 15:01 | 53.73607 | -2.09249 | 34029 ft | 455 kts | 332° |
| 2026-05-07 15:01 | 53.79313 | -2.13739 | 34030 ft | 455 kts | 338° |
| 2026-05-07 15:02 | 53.85164 | -2.17714 | 34030 ft | 455 kts | 338° |
| 2026-05-07 15:02 | 53.91029 | -2.21696 | 34031 ft | 454 kts | 338° |
| 2026-05-07 15:03 | 53.96867 | -2.25703 | 34031 ft | 454 kts | 338° |
| 2026-05-07 15:03 | 54.02642 | -2.29994 | 34033 ft | 454 kts | 333° |
| 2026-05-07 15:04 | 54.08198 | -2.35063 | 34030 ft | 455 kts | 331° |
| 2026-05-07 15:04 | 54.13746 | -2.40290 | 34026 ft | 455 kts | 331° |
| 2026-05-07 15:05 | 54.19288 | -2.45519 | 34025 ft | 457 kts | 331° |
| 2026-05-07 15:05 | 54.24853 | -2.50768 | 34024 ft | 461 kts | 331° |
| 2026-05-07 15:06 | 54.30442 | -2.56056 | 34019 ft | 462 kts | 331° |
| 2026-05-07 15:06 | 54.36083 | -2.61410 | 34016 ft | 463 kts | 331° |
| 2026-05-07 15:07 | 54.41746 | -2.66804 | 34011 ft | 463 kts | 330° |
| 2026-05-07 15:07 | 54.47346 | -2.72155 | 33889 ft | 461 kts | 330° |
| 2026-05-07 15:08 | 54.50158 | -2.74848 | 33189 ft | 461 kts | 330° |
| 2026-05-07 15:08 | 54.52836 | -2.77416 | 32005 ft | 467 kts | 330° |
| 2026-05-07 15:08 | 54.55698 | -2.80168 | 30864 ft | 474 kts | 330° |
| 2026-05-07 15:08 | 54.58582 | -2.82945 | 30236 ft | 474 kts | 330° |
| 2026-05-07 15:09 | 54.61436 | -2.85696 | 29319 ft | 465 kts | 330° |
| 2026-05-07 15:09 | 54.64245 | -2.88406 | 28496 ft | 460 kts | 329° |
| 2026-05-07 15:09 | 54.67032 | -2.91101 | 27720 ft | 460 kts | 329° |
| 2026-05-07 15:09 | 54.69808 | -2.93791 | 26977 ft | 458 kts | 329° |
| 2026-05-07 15:10 | 54.72580 | -2.96481 | 26518 ft | 453 kts | 329° |
| 2026-05-07 15:10 | 54.75294 | -2.99120 | 26144 ft | 442 kts | 329° |
| 2026-05-07 15:10 | 54.77931 | -3.01687 | 25920 ft | 426 kts | 329° |
| 2026-05-07 15:10 | 54.80461 | -3.04152 | 25823 ft | 406 kts | 328° |
| 2026-05-07 15:11 | 54.82874 | -3.06506 | 25881 ft | 387 kts | 328° |
| 2026-05-07 15:11 | 54.85180 | -3.08758 | 25856 ft | 373 kts | 328° |
| 2026-05-07 15:11 | 54.87412 | -3.10943 | 25838 ft | 367 kts | 328° |
| 2026-05-07 15:11 | 54.89624 | -3.13116 | 25820 ft | 366 kts | 328° |
| 2026-05-07 15:12 | 54.91864 | -3.15320 | 25811 ft | 368 kts | 328° |
| 2026-05-07 15:12 | 54.94118 | -3.17539 | 25399 ft | 372 kts | 328° |
| 2026-05-07 15:12 | 54.96361 | -3.19749 | 24996 ft | 372 kts | 328° |
| 2026-05-07 15:12 | 54.98620 | -3.21975 | 24744 ft | 367 kts | 328° |
| 2026-05-07 15:13 | 55.00809 | -3.24133 | 24390 ft | 362 kts | 328° |
| 2026-05-07 15:13 | 55.02992 | -3.26288 | 24034 ft | 356 kts | 328° |
| 2026-05-07 15:13 | 55.05141 | -3.28409 | 23431 ft | 353 kts | 328° |
| 2026-05-07 15:13 | 55.07293 | -3.30543 | 22501 ft | 361 kts | 328° |
| 2026-05-07 15:14 | 55.09555 | -3.32795 | 21918 ft | 381 kts | 328° |
| 2026-05-07 15:14 | 55.11872 | -3.35099 | 21635 ft | 383 kts | 328° |
| 2026-05-07 15:14 | 55.14169 | -3.37378 | 21224 ft | 378 kts | 328° |
| 2026-05-07 15:14 | 55.16449 | -3.39644 | 20830 ft | 373 kts | 328° |
| 2026-05-07 15:15 | 55.18702 | -3.41888 | 20372 ft | 364 kts | 328° |
| 2026-05-07 15:15 | 55.20890 | -3.44069 | 19701 ft | 359 kts | 328° |
| 2026-05-07 15:15 | 55.23067 | -3.46246 | 18900 ft | 366 kts | 328° |
| 2026-05-07 15:15 | 55.25262 | -3.48440 | 18524 ft | 360 kts | 328° |
| 2026-05-07 15:16 | 55.27434 | -3.50613 | 18134 ft | 355 kts | 328° |
| 2026-05-07 15:16 | 55.29565 | -3.52747 | 17736 ft | 348 kts | 328° |
| 2026-05-07 15:16 | 55.31659 | -3.54848 | 17096 ft | 345 kts | 328° |
| 2026-05-07 15:16 | 55.33736 | -3.56938 | 16452 ft | 342 kts | 328° |
| 2026-05-07 15:17 | 55.35785 | -3.59001 | 15885 ft | 338 kts | 327° |
| 2026-05-07 15:17 | 55.37822 | -3.61052 | 15331 ft | 333 kts | 327° |
| 2026-05-07 15:17 | 55.39801 | -3.63050 | 14778 ft | 329 kts | 327° |
| 2026-05-07 15:17 | 55.41797 | -3.65064 | 14226 ft | 324 kts | 327° |
| 2026-05-07 15:18 | 55.43732 | -3.67018 | 13798 ft | 319 kts | 326° |
| 2026-05-07 15:18 | 55.45636 | -3.68945 | 13431 ft | 313 kts | 326° |
| 2026-05-07 15:18 | 55.47516 | -3.70856 | 13076 ft | 309 kts | 326° |
| 2026-05-07 15:18 | 55.49377 | -3.72746 | 12742 ft | 304 kts | 326° |
| 2026-05-07 15:19 | 55.51210 | -3.74606 | 12418 ft | 300 kts | 325° |
| 2026-05-07 15:19 | 55.53012 | -3.76438 | 12108 ft | 295 kts | 325° |
| 2026-05-07 15:19 | 55.54778 | -3.78243 | 11798 ft | 291 kts | 326° |
| 2026-05-07 15:19 | 55.56532 | -3.80026 | 11494 ft | 286 kts | 325° |
| 2026-05-07 15:20 | 55.58231 | -3.81751 | 11204 ft | 281 kts | 324° |
| 2026-05-07 15:20 | 55.59920 | -3.83478 | 10859 ft | 277 kts | 324° |
| 2026-05-07 15:20 | 55.61582 | -3.85193 | 10507 ft | 274 kts | 325° |
| 2026-05-07 15:20 | 55.63240 | -3.86898 | 10158 ft | 272 kts | 325° |
| 2026-05-07 15:21 | 55.64867 | -3.88563 | 9835 ft | 271 kts | 325° |
| 2026-05-07 15:21 | 55.66490 | -3.90228 | 9475 ft | 270 kts | 325° |
| 2026-05-07 15:21 | 55.68132 | -3.91888 | 9092 ft | 270 kts | 329° |
| 2026-05-07 15:21 | 55.69846 | -3.93279 | 8718 ft | 272 kts | 333° |
| 2026-05-07 15:22 | 55.71600 | -3.94575 | 8339 ft | 272 kts | 334° |
| 2026-05-07 15:22 | 55.73331 | -3.95834 | 7967 ft | 271 kts | 334° |
| 2026-05-07 15:22 | 55.75084 | -3.97118 | 7617 ft | 270 kts | 334° |
| 2026-05-07 15:22 | 55.76820 | -3.98399 | 7293 ft | 267 kts | 334° |
| 2026-05-07 15:23 | 55.78517 | -3.99663 | 6942 ft | 265 kts | 334° |
| 2026-05-07 15:23 | 55.80220 | -4.00932 | 6582 ft | 264 kts | 334° |
| 2026-05-07 15:23 | 55.81895 | -4.02183 | 6243 ft | 263 kts | 334° |
| 2026-05-07 15:23 | 55.83596 | -4.03456 | 5909 ft | 262 kts | 334° |
| 2026-05-07 15:24 | 55.85260 | -4.04703 | 5585 ft | 260 kts | 334° |
| 2026-05-07 15:24 | 55.86928 | -4.05952 | 5256 ft | 259 kts | 334° |
| 2026-05-07 15:24 | 55.88574 | -4.07193 | 4932 ft | 258 kts | 334° |
| 2026-05-07 15:24 | 55.90216 | -4.08442 | 4620 ft | 250 kts | 331° |
| 2026-05-07 15:25 | 55.91515 | -4.10242 | 4311 ft | 231 kts | 296° |
| 2026-05-07 15:25 | 55.92065 | -4.12834 | 3910 ft | 219 kts | 279° |
| 2026-05-07 15:25 | 55.92417 | -4.15440 | 3514 ft | 213 kts | 279° |
| 2026-05-07 15:25 | 55.92774 | -4.17871 | 3305 ft | 192 kts | 280° |
| 2026-05-07 15:26 | 55.93121 | -4.20068 | 2903 ft | 183 kts | 281° |
| 2026-05-07 15:26 | 55.93468 | -4.22211 | 2392 ft | 181 kts | 282° |
| 2026-05-07 15:26 | 55.93808 | -4.24317 | 2057 ft | 168 kts | 277° |
| 2026-05-07 15:26 | 55.93860 | -4.26268 | 1871 ft | 148 kts | 259° |
| 2026-05-07 15:27 | 55.93656 | -4.28024 | 1722 ft | 143 kts | 251° |
| 2026-05-07 15:27 | 55.93376 | -4.29720 | 1653 ft | 143 kts | 248° |
| 2026-05-07 15:27 | 55.93029 | -4.31369 | 1602 ft | 142 kts | 242° |
| 2026-05-07 15:27 | 55.92570 | -4.32942 | 1536 ft | 141 kts | 235° |
| 2026-05-07 15:28 | 55.91993 | -4.34329 | 1447 ft | 140 kts | 227° |
| 2026-05-07 15:28 | 55.91327 | -4.35598 | 1307 ft | 140 kts | 224° |
| 2026-05-07 15:28 | 55.90668 | -4.36861 | 1045 ft | 138 kts | 221° |
| 2026-05-07 15:28 | 55.89998 | -4.38086 | 795 ft | 138 kts | 223° |
| 2026-05-07 15:29 | 55.89345 | -4.39302 | 552 ft | 137 kts | 224° |
| 2026-05-07 15:29 | 55.88686 | -4.40543 | 332 ft | 137 kts | 224° |
| 2026-05-07 15:29 | 55.88037 | -4.41751 | 129 ft | 136 kts | 224° |
| 2026-05-07 15:29 | 55.87392 | -4.42956 | 26 ft | 123 kts | 226° |
| 2026-05-07 15:30 | 55.87007 | -4.43677 | 27 ft | 46 kts | 226° |
| 2026-05-07 15:30 | 55.86791 | -4.44078 | 28 ft | 42 kts | 227° |
| 2026-05-07 15:30 | 55.86689 | -4.44264 | 28 ft | 11 kts | 214° |
| 2026-05-07 15:30 | 55.86622 | -4.44238 | 29 ft | 10 kts | 120° |
| 2026-05-07 15:31 | 55.86615 | -4.44108 | 29 ft | 10 kts | 91° |
| 2026-05-07 15:31 | 55.86615 | -4.43989 | 30 ft | 7 kts | 83° |
| 2026-05-07 15:31 | 55.86646 | -4.43907 | 29 ft | 8 kts | 45° |
| 2026-05-07 15:31 | 55.86694 | -4.43821 | 30 ft | 10 kts | 46° |
| 2026-05-07 15:32 | 55.86732 | -4.43723 | 30 ft | 10 kts | 71° |
| 2026-05-07 15:32 | 55.86749 | -4.43616 | 30 ft | 8 kts | 75° |
| 2026-05-07 15:32 | 55.86766 | -4.43508 | 30 ft | 9 kts | 75° |
| 2026-05-07 15:32 | 55.86779 | -4.43428 | 30 ft | 0 kts | 73° |
| 2026-05-07 15:33 | 55.86779 | -4.43427 | 30 ft | 0 kts | 73° |
| 2026-05-07 15:33 | 55.86785 | -4.43393 | 30 ft | 5 kts | 73° |
| 2026-05-07 15:33 | 55.86789 | -4.43315 | 30 ft | 7 kts | 119° |
| 2026-05-07 15:34 | 55.86740 | -4.43271 | 30 ft | 8 kts | 162° |
| 2026-05-07 15:34 | 55.86699 | -4.43251 | 30 ft | 2 kts | 181° |
| 2026-05-07 15:34 | 55.86684 | -4.43276 | 30 ft | 3 kts | 239° |
| 2026-05-07 15:34 | 55.86675 | -4.43315 | 30 ft | 0 kts | 252° |
| 2026-05-07 15:35 | 55.86674 | -4.43323 | 30 ft | 0 kts | 252° |